sensor_id;sensor_type;location;lat;lon;timestamp;pressure;altitude;pressure_sealevel;temperature;humidity
24962;BME280;12992;50.884;13.668;2023-05-24T00:01:25;97639.03;;;9.27;100.00
24962;BME280;12992;50.884;13.668;2023-05-24T00:03:52;97639.66;;;9.17;100.00
24962;BME280;12992;50.884;13.668;2023-05-24T00:06:19;97654.75;;;9.36;100.00
24962;BME280;12992;50.884;13.668;2023-05-24T00:08:45;97652.63;;;9.39;100.00
24962;BME280;12992;50.884;13.668;2023-05-24T00:11:10;97645.88;;;9.41;100.00
24962;BME280;12992;50.884;13.668;2023-05-24T00:13:36;97650.47;;;9.41;100.00
24962;BME280;12992;50.884;13.668;2023-05-24T00:16:01;97648.22;;;9.49;100.00
24962;BME280;12992;50.884;13.668;2023-05-24T00:18:26;97648.91;;;9.45;100.00
24962;BME280;12992;50.884;13.668;2023-05-24T00:20:52;97655.31;;;9.50;100.00
24962;BME280;12992;50.884;13.668;2023-05-24T00:23:17;97653.97;;;9.53;100.00
24962;BME280;12992;50.884;13.668;2023-05-24T00:25:43;97666.63;;;9.59;100.00
24962;BME280;12992;50.884;13.668;2023-05-24T00:28:08;97656.25;;;9.56;100.00
24962;BME280;12992;50.884;13.668;2023-05-24T00:30:33;97663.34;;;9.57;100.00
24962;BME280;12992;50.884;13.668;2023-05-24T00:32:59;97651.38;;;9.58;100.00
24962;BME280;12992;50.884;13.668;2023-05-24T00:35:24;97657.44;;;9.48;100.00
24962;BME280;12992;50.884;13.668;2023-05-24T00:37:52;97675.59;;;9.59;100.00
24962;BME280;12992;50.884;13.668;2023-05-24T00:40:17;97665.34;;;9.50;100.00
24962;BME280;12992;50.884;13.668;2023-05-24T00:42:42;97663.34;;;9.45;100.00
24962;BME280;12992;50.884;13.668;2023-05-24T00:45:08;97657.56;;;9.42;100.00
24962;BME280;12992;50.884;13.668;2023-05-24T00:47:34;97648.63;;;9.29;100.00
24962;BME280;12992;50.884;13.668;2023-05-24T00:49:59;97647.69;;;9.24;100.00
24962;BME280;12992;50.884;13.668;2023-05-24T00:52:25;97641.28;;;9.18;100.00
24962;BME280;12992;50.884;13.668;2023-05-24T00:54:50;97632.09;;;9.07;100.00
24962;BME280;12992;50.884;13.668;2023-05-24T00:57:16;97633.09;;;9.01;100.00
24962;BME280;12992;50.884;13.668;2023-05-24T00:59:43;97632.13;;;8.96;100.00
24962;BME280;12992;50.884;13.668;2023-05-24T01:02:08;97633.28;;;9.00;100.00
24962;BME280;12992;50.884;13.668;2023-05-24T01:04:34;97633.66;;;8.92;100.00
24962;BME280;12992;50.884;13.668;2023-05-24T01:07:44;97638.88;;;8.93;100.00
24962;BME280;12992;50.884;13.668;2023-05-24T01:15:48;97651.38;;;8.83;100.00
24962;BME280;12992;50.884;13.668;2023-05-24T01:18:19;97654.81;;;8.90;100.00
24962;BME280;12992;50.884;13.668;2023-05-24T01:20:58;97659.63;;;8.99;100.00
24962;BME280;12992;50.884;13.668;2023-05-24T01:23:40;97657.41;;;8.96;100.00
24962;BME280;12992;50.884;13.668;2023-05-24T01:28:59;97659.53;;;9.06;100.00
24962;BME280;12992;50.884;13.668;2023-05-24T01:31:26;97667.31;;;9.14;100.00
24962;BME280;12992;50.884;13.668;2023-05-24T01:33:52;97657.13;;;9.09;100.00
24962;BME280;12992;50.884;13.668;2023-05-24T01:36:18;97661.75;;;9.09;100.00
24962;BME280;12992;50.884;13.668;2023-05-24T01:38:44;97664.47;;;9.09;100.00
24962;BME280;12992;50.884;13.668;2023-05-24T01:43:55;97664.59;;;9.14;100.00
24962;BME280;12992;50.884;13.668;2023-05-24T01:46:40;97652.78;;;9.08;100.00
24962;BME280;12992;50.884;13.668;2023-05-24T01:49:25;97643.81;;;8.96;100.00
24962;BME280;12992;50.884;13.668;2023-05-24T01:51:59;97647.38;;;8.97;100.00
24962;BME280;12992;50.884;13.668;2023-05-24T01:54:32;97636.16;;;8.82;100.00
24962;BME280;12992;50.884;13.668;2023-05-24T01:56:57;97633.31;;;8.65;100.00
24962;BME280;12992;50.884;13.668;2023-05-24T01:59:25;97635.44;;;8.63;100.00
24962;BME280;12992;50.884;13.668;2023-05-24T02:01:52;97635.91;;;8.60;100.00
24962;BME280;12992;50.884;13.668;2023-05-24T02:04:19;97650.31;;;8.72;100.00
24962;BME280;12992;50.884;13.668;2023-05-24T02:06:44;97642.41;;;8.70;100.00
24962;BME280;12992;50.884;13.668;2023-05-24T02:09:09;97636.84;;;8.65;100.00
24962;BME280;12992;50.884;13.668;2023-05-24T02:11:35;97626.81;;;8.54;100.00
24962;BME280;12992;50.884;13.668;2023-05-24T02:14:00;97629.53;;;8.42;100.00
24962;BME280;12992;50.884;13.668;2023-05-24T02:16:25;97625.50;;;8.45;100.00
24962;BME280;12992;50.884;13.668;2023-05-24T02:18:55;97625.03;;;8.48;100.00
24962;BME280;12992;50.884;13.668;2023-05-24T02:21:20;97616.78;;;8.43;100.00
24962;BME280;12992;50.884;13.668;2023-05-24T02:23:47;97617.63;;;8.43;100.00
24962;BME280;12992;50.884;13.668;2023-05-24T02:26:13;97626.91;;;8.47;100.00
24962;BME280;12992;50.884;13.668;2023-05-24T02:28:38;97618.91;;;8.41;100.00
24962;BME280;12992;50.884;13.668;2023-05-24T02:31:04;97618.78;;;8.36;100.00
24962;BME280;12992;50.884;13.668;2023-05-24T02:33:30;97623.16;;;8.37;100.00
24962;BME280;12992;50.884;13.668;2023-05-24T02:35:55;97612.00;;;8.27;100.00
24962;BME280;12992;50.884;13.668;2023-05-24T02:38:21;97617.72;;;8.37;100.00
24962;BME280;12992;50.884;13.668;2023-05-24T02:40:46;97614.75;;;8.38;100.00
24962;BME280;12992;50.884;13.668;2023-05-24T02:43:12;97614.88;;;8.32;100.00
24962;BME280;12992;50.884;13.668;2023-05-24T02:45:37;97592.19;;;8.14;100.00
24962;BME280;12992;50.884;13.668;2023-05-24T02:48:02;97614.88;;;8.32;100.00
24962;BME280;12992;50.884;13.668;2023-05-24T02:50:28;97615.38;;;8.40;100.00
24962;BME280;12992;50.884;13.668;2023-05-24T02:52:53;97620.09;;;8.45;100.00
24962;BME280;12992;50.884;13.668;2023-05-24T02:55:19;97613.72;;;8.39;100.00
24962;BME280;12992;50.884;13.668;2023-05-24T02:57:44;97610.78;;;8.41;100.00
24962;BME280;12992;50.884;13.668;2023-05-24T03:00:10;97620.31;;;8.43;100.00
24962;BME280;12992;50.884;13.668;2023-05-24T03:02:37;97623.72;;;8.39;100.00
24962;BME280;12992;50.884;13.668;2023-05-24T03:05:05;97625.66;;;8.50;100.00
24962;BME280;12992;50.884;13.668;2023-05-24T03:07:31;97618.78;;;8.47;100.00
24962;BME280;12992;50.884;13.668;2023-05-24T03:09:56;97616.31;;;8.46;100.00
24962;BME280;12992;50.884;13.668;2023-05-24T03:12:21;97612.72;;;8.34;100.00
24962;BME280;12992;50.884;13.668;2023-05-24T03:14:47;97618.78;;;8.36;100.00
24962;BME280;12992;50.884;13.668;2023-05-24T03:17:12;97612.34;;;8.30;100.00
24962;BME280;12992;50.884;13.668;2023-05-24T03:19:37;97619.84;;;8.35;100.00
24962;BME280;12992;50.884;13.668;2023-05-24T03:22:03;97625.28;;;8.35;100.00
24962;BME280;12992;50.884;13.668;2023-05-24T03:24:28;97625.63;;;8.38;100.00
24962;BME280;12992;50.884;13.668;2023-05-24T03:26:53;97623.16;;;8.37;100.00
24962;BME280;12992;50.884;13.668;2023-05-24T03:29:19;97620.88;;;8.34;100.00
24962;BME280;12992;50.884;13.668;2023-05-24T03:31:45;97619.25;;;8.44;100.00
24962;BME280;12992;50.884;13.668;2023-05-24T03:34:11;97632.59;;;8.46;100.00
24962;BME280;12992;50.884;13.668;2023-05-24T03:36:37;97621.25;;;8.37;100.00
24962;BME280;12992;50.884;13.668;2023-05-24T03:39:03;97622.75;;;8.33;100.00
24962;BME280;12992;50.884;13.668;2023-05-24T03:41:31;97621.00;;;8.39;100.00
24962;BME280;12992;50.884;13.668;2023-05-24T03:43:59;97618.53;;;8.37;100.00
24962;BME280;12992;50.884;13.668;2023-05-24T03:46:26;97634.25;;;8.47;100.00
24962;BME280;12992;50.884;13.668;2023-05-24T03:48:52;97630.84;;;8.40;100.00
24962;BME280;12992;50.884;13.668;2023-05-24T03:51:18;97629.03;;;8.34;100.00
24962;BME280;12992;50.884;13.668;2023-05-24T03:53:43;97624.06;;;8.31;100.00
24962;BME280;12992;50.884;13.668;2023-05-24T03:56:09;97633.31;;;8.41;100.00
24962;BME280;12992;50.884;13.668;2023-05-24T03:58:35;97621.69;;;8.22;100.00
24962;BME280;12992;50.884;13.668;2023-05-24T04:01:00;97615.97;;;8.12;100.00
24962;BME280;12992;50.884;13.668;2023-05-24T04:03:26;97622.94;;;8.08;100.00
24962;BME280;12992;50.884;13.668;2023-05-24T04:05:52;97627.81;;;8.18;100.00
24962;BME280;12992;50.884;13.668;2023-05-24T04:08:19;97619.50;;;8.01;100.00
24962;BME280;12992;50.884;13.668;2023-05-24T04:10:44;97619.16;;;7.98;100.00
24962;BME280;12992;50.884;13.668;2023-05-24T04:13:10;97619.25;;;7.91;100.00
24962;BME280;12992;50.884;13.668;2023-05-24T04:15:36;97624.09;;;7.89;100.00
24962;BME280;12992;50.884;13.668;2023-05-24T04:18:04;97621.97;;;7.91;100.00
24962;BME280;12992;50.884;13.668;2023-05-24T04:20:30;97616.38;;;7.86;100.00
24962;BME280;12992;50.884;13.668;2023-05-24T04:22:55;97620.78;;;7.87;100.00
24962;BME280;12992;50.884;13.668;2023-05-24T04:25:21;97650.81;;;8.15;100.00
24962;BME280;12992;50.884;13.668;2023-05-24T04:27:47;97639.38;;;8.13;100.00
24962;BME280;12992;50.884;13.668;2023-05-24T04:30:13;97633.81;;;8.08;100.00
24962;BME280;12992;50.884;13.668;2023-05-24T04:32:41;97643.50;;;8.16;100.00
24962;BME280;12992;50.884;13.668;2023-05-24T04:35:10;97653.78;;;8.26;100.00
24962;BME280;12992;50.884;13.668;2023-05-24T04:37:36;97638.78;;;8.23;100.00
24962;BME280;12992;50.884;13.668;2023-05-24T04:40:01;97643.97;;;8.24;100.00
24962;BME280;12992;50.884;13.668;2023-05-24T04:42:29;97648.19;;;8.20;100.00
24962;BME280;12992;50.884;13.668;2023-05-24T04:44:58;97658.72;;;8.29;100.00
24962;BME280;12992;50.884;13.668;2023-05-24T04:47:24;97661.50;;;8.40;100.00
24962;BME280;12992;50.884;13.668;2023-05-24T04:49:49;97676.97;;;8.40;100.00
24962;BME280;12992;50.884;13.668;2023-05-24T04:52:15;97679.06;;;8.38;100.00
24962;BME280;12992;50.884;13.668;2023-05-24T04:54:41;97682.19;;;8.53;100.00
24962;BME280;12992;50.884;13.668;2023-05-24T04:57:06;97677.22;;;8.50;100.00
24962;BME280;12992;50.884;13.668;2023-05-24T04:59:32;97692.81;;;8.66;100.00
24962;BME280;12992;50.884;13.668;2023-05-24T05:01:57;97684.88;;;8.65;100.00
24962;BME280;12992;50.884;13.668;2023-05-24T05:04:22;97692.59;;;8.79;100.00
24962;BME280;12992;50.884;13.668;2023-05-24T05:06:48;97693.31;;;8.87;100.00
24962;BME280;12992;50.884;13.668;2023-05-24T05:09:13;97711.97;;;9.06;100.00
24962;BME280;12992;50.884;13.668;2023-05-24T05:11:40;97701.09;;;9.06;100.00
24962;BME280;12992;50.884;13.668;2023-05-24T05:14:06;97684.22;;;8.93;100.00
24962;BME280;12992;50.884;13.668;2023-05-24T05:16:34;97692.47;;;9.09;100.00
24962;BME280;12992;50.884;13.668;2023-05-24T05:19:00;97689.06;;;9.02;100.00
24962;BME280;12992;50.884;13.668;2023-05-24T05:21:26;97689.41;;;9.06;100.00
24962;BME280;12992;50.884;13.668;2023-05-24T05:23:51;97690.00;;;9.08;100.00
24962;BME280;12992;50.884;13.668;2023-05-24T05:26:16;97695.91;;;9.05;100.00
24962;BME280;12992;50.884;13.668;2023-05-24T05:28:42;97691.06;;;9.07;100.00
24962;BME280;12992;50.884;13.668;2023-05-24T05:31:07;97694.47;;;9.14;100.00
24962;BME280;12992;50.884;13.668;2023-05-24T05:33:32;97704.28;;;9.39;100.00
24962;BME280;12992;50.884;13.668;2023-05-24T05:35:58;97711.31;;;9.51;100.00
24962;BME280;12992;50.884;13.668;2023-05-24T05:38:23;97696.13;;;9.39;100.00
24962;BME280;12992;50.884;13.668;2023-05-24T05:40:48;97691.00;;;9.42;100.00
24962;BME280;12992;50.884;13.668;2023-05-24T05:43:14;97711.31;;;9.63;100.00
24962;BME280;12992;50.884;13.668;2023-05-24T05:45:39;97697.72;;;9.63;100.00
24962;BME280;12992;50.884;13.668;2023-05-24T05:48:04;97703.38;;;9.73;100.00
24962;BME280;12992;50.884;13.668;2023-05-24T05:50:30;97702.50;;;9.84;100.00
24962;BME280;12992;50.884;13.668;2023-05-24T05:52:55;97701.03;;;9.93;100.00
24962;BME280;12992;50.884;13.668;2023-05-24T05:55:22;97700.81;;;9.95;100.00
24962;BME280;12992;50.884;13.668;2023-05-24T05:57:47;97694.19;;;9.91;100.00
24962;BME280;12992;50.884;13.668;2023-05-24T06:00:13;97690.53;;;9.85;100.00
24962;BME280;12992;50.884;13.668;2023-05-24T06:02:39;97680.53;;;9.74;100.00
24962;BME280;12992;50.884;13.668;2023-05-24T06:05:04;97673.13;;;9.58;100.00
24962;BME280;12992;50.884;13.668;2023-05-24T06:07:30;97682.31;;;9.69;100.00
24962;BME280;12992;50.884;13.668;2023-05-24T06:09:55;97682.06;;;9.70;100.00
24962;BME280;12992;50.884;13.668;2023-05-24T06:12:20;97669.84;;;9.56;100.00
24962;BME280;12992;50.884;13.668;2023-05-24T06:14:45;97674.28;;;9.62;100.00
24962;BME280;12992;50.884;13.668;2023-05-24T06:17:14;97683.25;;;9.74;100.00
24962;BME280;12992;50.884;13.668;2023-05-24T06:19:40;97686.75;;;9.86;100.00
24962;BME280;12992;50.884;13.668;2023-05-24T06:22:05;97700.94;;;9.88;100.00
24962;BME280;12992;50.884;13.668;2023-05-24T06:24:31;97703.88;;;9.99;100.00
24962;BME280;12992;50.884;13.668;2023-05-24T06:26:58;97708.81;;;10.02;100.00
24962;BME280;12992;50.884;13.668;2023-05-24T06:29:24;97735.00;;;10.31;100.00
24962;BME280;12992;50.884;13.668;2023-05-24T06:31:49;97721.94;;;10.33;100.00
24962;BME280;12992;50.884;13.668;2023-05-24T06:34:14;97708.06;;;10.18;100.00
24962;BME280;12992;50.884;13.668;2023-05-24T06:36:45;97700.13;;;10.16;100.00
24962;BME280;12992;50.884;13.668;2023-05-24T06:39:13;97696.22;;;10.12;100.00
24962;BME280;12992;50.884;13.668;2023-05-24T06:41:40;97682.75;;;10.06;100.00
24962;BME280;12992;50.884;13.668;2023-05-24T06:44:06;97682.19;;;10.04;100.00
24962;BME280;12992;50.884;13.668;2023-05-24T06:46:31;97675.88;;;9.86;100.00
24962;BME280;12992;50.884;13.668;2023-05-24T06:48:57;97709.59;;;10.14;100.00
24962;BME280;12992;50.884;13.668;2023-05-24T06:51:22;97687.94;;;9.90;100.00
24962;BME280;12992;50.884;13.668;2023-05-24T06:53:48;97690.06;;;9.88;100.00
24962;BME280;12992;50.884;13.668;2023-05-24T06:56:13;97696.75;;;9.98;100.00
24962;BME280;12992;50.884;13.668;2023-05-24T06:58:39;97705.91;;;9.91;100.00
24962;BME280;12992;50.884;13.668;2023-05-24T07:01:04;97697.94;;;9.73;100.00
24962;BME280;12992;50.884;13.668;2023-05-24T07:03:30;97702.25;;;9.86;100.00
24962;BME280;12992;50.884;13.668;2023-05-24T07:05:56;97715.22;;;9.96;100.00
24962;BME280;12992;50.884;13.668;2023-05-24T07:08:22;97718.78;;;9.96;100.00
24962;BME280;12992;50.884;13.668;2023-05-24T07:10:47;97696.47;;;9.82;100.00
24962;BME280;12992;50.884;13.668;2023-05-24T07:13:12;97703.06;;;9.86;100.00
24962;BME280;12992;50.884;13.668;2023-05-24T07:15:41;97683.06;;;9.64;100.00
24962;BME280;12992;50.884;13.668;2023-05-24T07:18:07;97698.59;;;9.80;100.00
24962;BME280;12992;50.884;13.668;2023-05-24T07:20:32;97701.88;;;9.94;100.00
24962;BME280;12992;50.884;13.668;2023-05-24T07:22:58;97720.34;;;10.20;100.00
24962;BME280;12992;50.884;13.668;2023-05-24T07:25:24;97730.13;;;10.33;100.00
24962;BME280;12992;50.884;13.668;2023-05-24T07:27:49;97722.25;;;10.20;100.00
24962;BME280;12992;50.884;13.668;2023-05-24T07:30:15;97710.22;;;10.04;100.00
24962;BME280;12992;50.884;13.668;2023-05-24T07:32:41;97716.75;;;10.03;100.00
24962;BME280;12992;50.884;13.668;2023-05-24T07:35:07;97706.25;;;9.95;100.00
24962;BME280;12992;50.884;13.668;2023-05-24T07:37:33;97716.41;;;10.00;100.00
24962;BME280;12992;50.884;13.668;2023-05-24T07:39:58;97709.78;;;9.96;100.00
24962;BME280;12992;50.884;13.668;2023-05-24T07:42:23;97715.59;;;9.87;100.00
24962;BME280;12992;50.884;13.668;2023-05-24T07:44:49;97715.53;;;9.82;100.00
24962;BME280;12992;50.884;13.668;2023-05-24T07:47:14;97719.91;;;9.83;100.00
24962;BME280;12992;50.884;13.668;2023-05-24T07:49:40;97713.75;;;9.76;100.00
24962;BME280;12992;50.884;13.668;2023-05-24T07:52:05;97707.28;;;9.65;100.00
24962;BME280;12992;50.884;13.668;2023-05-24T07:54:30;97712.03;;;9.58;100.00
24962;BME280;12992;50.884;13.668;2023-05-24T07:56:56;97712.28;;;9.57;100.00
24962;BME280;12992;50.884;13.668;2023-05-24T07:59:22;97734.56;;;9.71;100.00
24962;BME280;12992;50.884;13.668;2023-05-24T08:01:48;97704.00;;;9.52;100.00
24962;BME280;12992;50.884;13.668;2023-05-24T08:04:13;97714.25;;;9.61;100.00
24962;BME280;12992;50.884;13.668;2023-05-24T08:06:39;97740.00;;;9.82;100.00
24962;BME280;12992;50.884;13.668;2023-05-24T08:09:04;97754.25;;;10.01;100.00
24962;BME280;12992;50.884;13.668;2023-05-24T08:11:29;97760.94;;;10.22;100.00
24962;BME280;12992;50.884;13.668;2023-05-24T08:13:55;97756.19;;;10.29;100.00
24962;BME280;12992;50.884;13.668;2023-05-24T08:16:20;97750.84;;;10.34;100.00
24962;BME280;12992;50.884;13.668;2023-05-24T08:18:46;97751.91;;;10.33;100.00
24962;BME280;12992;50.884;13.668;2023-05-24T08:21:11;97735.38;;;10.23;100.00
24962;BME280;12992;50.884;13.668;2023-05-24T08:23:36;97753.25;;;10.47;100.00
24962;BME280;12992;50.884;13.668;2023-05-24T08:26:02;97715.13;;;10.31;100.00
24962;BME280;12992;50.884;13.668;2023-05-24T08:28:27;97744.44;;;10.57;100.00
24962;BME280;12992;50.884;13.668;2023-05-24T08:30:53;97733.81;;;10.56;100.00
24962;BME280;12992;50.884;13.668;2023-05-24T08:33:18;97727.78;;;10.54;100.00
24962;BME280;12992;50.884;13.668;2023-05-24T08:35:44;97737.94;;;10.58;100.00
24962;BME280;12992;50.884;13.668;2023-05-24T08:38:09;97723.41;;;10.53;100.00
24962;BME280;12992;50.884;13.668;2023-05-24T08:40:34;97729.72;;;10.70;100.00
24962;BME280;12992;50.884;13.668;2023-05-24T08:43:00;97752.97;;;10.94;100.00
24962;BME280;12992;50.884;13.668;2023-05-24T08:45:31;97751.84;;;11.24;100.00
24962;BME280;12992;50.884;13.668;2023-05-24T08:47:57;97766.47;;;11.56;100.00
24962;BME280;12992;50.884;13.668;2023-05-24T08:50:23;97787.56;;;12.00;100.00
24962;BME280;12992;50.884;13.668;2023-05-24T08:52:50;97779.88;;;12.18;100.00
24962;BME280;12992;50.884;13.668;2023-05-24T08:55:16;97782.19;;;12.54;99.01
24962;BME280;12992;50.884;13.668;2023-05-24T08:57:42;97776.97;;;12.52;97.21
24962;BME280;12992;50.884;13.668;2023-05-24T09:00:10;97809.00;;;13.11;96.11
24962;BME280;12992;50.884;13.668;2023-05-24T09:02:40;97781.22;;;13.24;87.24
24962;BME280;12992;50.884;13.668;2023-05-24T09:05:12;97753.09;;;12.96;87.47
24962;BME280;12992;50.884;13.668;2023-05-24T09:07:42;97720.13;;;12.49;88.08
24962;BME280;12992;50.884;13.668;2023-05-24T09:10:08;97752.41;;;12.52;95.23
24962;BME280;12992;50.884;13.668;2023-05-24T09:12:35;97735.50;;;12.55;93.82
24962;BME280;12992;50.884;13.668;2023-05-24T09:15:02;97721.69;;;12.40;91.44
24962;BME280;12992;50.884;13.668;2023-05-24T09:17:30;97740.28;;;12.43;93.91
24962;BME280;12992;50.884;13.668;2023-05-24T09:19:57;97749.75;;;12.62;96.54
24962;BME280;12992;50.884;13.668;2023-05-24T09:22:24;97722.25;;;12.42;90.27
24962;BME280;12992;50.884;13.668;2023-05-24T09:24:51;97764.81;;;12.92;90.83
24962;BME280;12992;50.884;13.668;2023-05-24T09:27:17;97758.75;;;13.17;87.23
24962;BME280;12992;50.884;13.668;2023-05-24T09:29:46;97716.84;;;12.79;85.32
24962;BME280;12992;50.884;13.668;2023-05-24T09:32:16;97759.38;;;12.97;91.33
24962;BME280;12992;50.884;13.668;2023-05-24T09:34:43;97766.09;;;13.16;92.06
24962;BME280;12992;50.884;13.668;2023-05-24T09:37:16;97744.84;;;12.91;91.21
24962;BME280;12992;50.884;13.668;2023-05-24T09:39:43;97730.13;;;12.97;90.20
24962;BME280;12992;50.884;13.668;2023-05-24T09:42:21;97699.47;;;12.58;89.57
24962;BME280;12992;50.884;13.668;2023-05-24T09:45:00;97744.81;;;13.18;91.69
24962;BME280;12992;50.884;13.668;2023-05-24T09:47:30;97749.31;;;13.35;87.76
24962;BME280;12992;50.884;13.668;2023-05-24T09:49:56;97815.38;;;14.48;84.92
24962;BME280;12992;50.884;13.668;2023-05-24T09:52:21;97833.03;;;16.15;79.02
24962;BME280;12992;50.884;13.668;2023-05-24T09:54:47;97765.56;;;16.48;72.38
24962;BME280;12992;50.884;13.668;2023-05-24T09:57:14;97735.00;;;16.00;72.45
24962;BME280;12992;50.884;13.668;2023-05-24T09:59:41;97709.31;;;15.50;75.02
24962;BME280;12992;50.884;13.668;2023-05-24T10:02:10;97682.97;;;14.42;77.28
24962;BME280;12992;50.884;13.668;2023-05-24T10:04:37;97706.53;;;14.33;81.06
24962;BME280;12992;50.884;13.668;2023-05-24T10:07:03;97728.69;;;14.27;81.64
24962;BME280;12992;50.884;13.668;2023-05-24T10:09:29;97728.41;;;14.23;80.23
24962;BME280;12992;50.884;13.668;2023-05-24T10:12:01;97677.53;;;13.65;81.42
24962;BME280;12992;50.884;13.668;2023-05-24T10:14:34;97683.91;;;13.28;83.32
24962;BME280;12992;50.884;13.668;2023-05-24T10:17:01;97696.06;;;13.10;85.37
24962;BME280;12992;50.884;13.668;2023-05-24T10:19:29;97764.88;;;14.39;83.28
24962;BME280;12992;50.884;13.668;2023-05-24T10:21:55;97753.78;;;14.76;76.39
24962;BME280;12992;50.884;13.668;2023-05-24T10:24:25;97704.88;;;14.37;76.43
24962;BME280;12992;50.884;13.668;2023-05-24T10:26:54;97807.53;;;15.89;78.16
24962;BME280;12992;50.884;13.668;2023-05-24T10:29:32;97750.09;;;16.03;71.46
24962;BME280;12992;50.884;13.668;2023-05-24T10:32:00;97744.16;;;15.75;73.29
24962;BME280;12992;50.884;13.668;2023-05-24T10:34:27;97721.94;;;15.46;70.57
24962;BME280;12992;50.884;13.668;2023-05-24T10:36:56;97758.72;;;15.61;79.57
24962;BME280;12992;50.884;13.668;2023-05-24T10:39:23;97706.63;;;14.69;79.48
24962;BME280;12992;50.884;13.668;2023-05-24T10:41:49;97700.03;;;14.60;79.46
24962;BME280;12992;50.884;13.668;2023-05-24T10:44:17;97733.19;;;14.84;80.75
24962;BME280;12992;50.884;13.668;2023-05-24T10:47:12;97766.41;;;15.48;79.57
24962;BME280;12992;50.884;13.668;2023-05-24T10:49:55;97813.03;;;16.74;76.13
24962;BME280;12992;50.884;13.668;2023-05-24T10:52:35;97784.22;;;17.06;73.17
24962;BME280;12992;50.884;13.668;2023-05-24T10:55:08;97782.91;;;16.98;70.67
24962;BME280;12992;50.884;13.668;2023-05-24T10:57:35;97844.75;;;18.08;71.38
24962;BME280;12992;50.884;13.668;2023-05-24T11:02:48;97798.81;;;19.08;64.39
24962;BME280;12992;50.884;13.668;2023-05-24T11:05:13;97786.78;;;18.37;68.59
24962;BME280;12992;50.884;13.668;2023-05-24T11:07:42;97691.22;;;16.63;66.64
24962;BME280;12992;50.884;13.668;2023-05-24T11:10:13;97710.94;;;16.81;67.30
24962;BME280;12992;50.884;13.668;2023-05-24T11:12:39;97708.28;;;16.70;66.59
24962;BME280;12992;50.884;13.668;2023-05-24T11:15:07;97711.22;;;16.79;66.41
24962;BME280;12992;50.884;13.668;2023-05-24T11:20:31;97760.94;;;17.22;69.03
24962;BME280;12992;50.884;13.668;2023-05-24T11:22:56;97733.59;;;17.36;66.43
24962;BME280;12992;50.884;13.668;2023-05-24T11:25:24;97760.66;;;17.87;66.53
24962;BME280;12992;50.884;13.668;2023-05-24T11:27:49;97812.88;;;18.92;67.97
24962;BME280;12992;50.884;13.668;2023-05-24T11:30:16;97736.38;;;19.12;60.27
24962;BME280;12992;50.884;13.668;2023-05-24T11:32:46;97683.06;;;17.21;64.64
24962;BME280;12992;50.884;13.668;2023-05-24T11:35:12;97685.06;;;16.82;65.57
24962;BME280;12992;50.884;13.668;2023-05-24T11:37:38;97665.09;;;15.62;72.12
24962;BME280;12992;50.884;13.668;2023-05-24T11:40:05;97670.09;;;15.19;69.17
24962;BME280;12992;50.884;13.668;2023-05-24T11:42:34;97674.78;;;15.19;71.01
24962;BME280;12992;50.884;13.668;2023-05-24T11:45:02;97790.63;;;17.30;72.88
24962;BME280;12992;50.884;13.668;2023-05-24T11:47:28;97799.22;;;18.82;65.02
24962;BME280;12992;50.884;13.668;2023-05-24T11:49:54;97744.44;;;18.71;64.43
24962;BME280;12992;50.884;13.668;2023-05-24T11:52:19;97708.88;;;18.07;64.71
24962;BME280;12992;50.884;13.668;2023-05-24T11:54:45;97669.19;;;16.74;68.44
24962;BME280;12992;50.884;13.668;2023-05-24T11:57:11;97702.31;;;16.53;69.54
24962;BME280;12992;50.884;13.668;2023-05-24T11:59:37;97662.53;;;15.81;68.70
24962;BME280;12992;50.884;13.668;2023-05-24T12:02:05;97686.44;;;15.85;71.44
24962;BME280;12992;50.884;13.668;2023-05-24T12:04:33;97697.19;;;15.72;72.23
24962;BME280;12992;50.884;13.668;2023-05-24T12:06:59;97777.13;;;17.34;70.95
24962;BME280;12992;50.884;13.668;2023-05-24T12:09:25;97828.25;;;19.50;63.15
24962;BME280;12992;50.884;13.668;2023-05-24T12:11:51;97839.16;;;20.80;59.12
24962;BME280;12992;50.884;13.668;2023-05-24T12:16:44;97624.78;;;18.66;56.11
24962;BME280;12992;50.884;13.668;2023-05-24T12:19:17;97641.69;;;15.80;66.87
24962;BME280;12992;50.884;13.668;2023-05-24T12:21:42;97643.50;;;14.33;76.82
24962;BME280;12992;50.884;13.668;2023-05-24T12:24:13;97702.25;;;14.93;77.73
24962;BME280;12992;50.884;13.668;2023-05-24T12:26:46;97729.84;;;15.83;75.81
24962;BME280;12992;50.884;13.668;2023-05-24T12:29:12;97792.03;;;18.15;72.35
24962;BME280;12992;50.884;13.668;2023-05-24T12:31:39;97807.56;;;19.15;67.50
24962;BME280;12992;50.884;13.668;2023-05-24T12:34:06;97703.53;;;18.16;62.60
24962;BME280;12992;50.884;13.668;2023-05-24T12:36:33;97675.25;;;16.65;64.87
24962;BME280;12992;50.884;13.668;2023-05-24T12:39:05;97714.94;;;16.98;69.85
24962;BME280;12992;50.884;13.668;2023-05-24T12:41:40;97689.50;;;16.78;68.71
24962;BME280;12992;50.884;13.668;2023-05-24T12:44:05;97658.81;;;15.46;72.85
24962;BME280;12992;50.884;13.668;2023-05-24T12:46:31;97623.22;;;14.34;72.92
24962;BME280;12992;50.884;13.668;2023-05-24T12:48:57;97698.38;;;15.10;75.38
24962;BME280;12992;50.884;13.668;2023-05-24T12:51:26;97748.94;;;16.79;72.76
24962;BME280;12992;50.884;13.668;2023-05-24T12:53:51;97742.78;;;18.08;65.53
24962;BME280;12992;50.884;13.668;2023-05-24T12:56:17;97796.47;;;19.52;65.31
24962;BME280;12992;50.884;13.668;2023-05-24T12:58:42;97688.66;;;18.92;60.00
24962;BME280;12992;50.884;13.668;2023-05-24T13:01:07;97711.66;;;18.69;62.19
24962;BME280;12992;50.884;13.668;2023-05-24T13:03:33;97592.75;;;15.87;66.56
24962;BME280;12992;50.884;13.668;2023-05-24T13:05:59;97621.56;;;15.15;75.43